Time;durP1;ratioP1;P1;durP2;ratioP2;P2;SDS_P1;SDS_P2;PMS_P1;PMS_P2;Temp;Humidity;BMP_temperature;BMP_pressure;BME280_temperature;BME280_humidity;BME280_pressure;Samples;Min_cycle;Max_cycle;Signal;HPM_P1;HPM_P2
2022/03/14 00:02:25;;;;;;;17.10;11.10;;;;;;;;;;5073142;28;20044;-61
2022/03/14 00:04:51;;;;;;;14.43;9.82;;;;;;;;;;5073237;28;20044;-61
2022/03/14 00:07:18;;;;;;;13.60;8.98;;;;;;;;;;5073107;28;20119;-61
2022/03/14 00:09:44;;;;;;;14.70;8.98;;;;;;;;;;5072790;28;20108;-61
2022/03/14 00:12:10;;;;;;;12.75;8.32;;;;;;;;;;5054385;28;20044;-61
2022/03/14 00:14:36;;;;;;;11.65;7.43;;;;;;;;;;5072952;28;20079;-61
2022/03/14 00:17:06;;;;;;;8.73;6.00;;;;;;;;;;5072838;28;20123;-61
2022/03/14 00:19:32;;;;;;;10.25;6.25;;;;;;;;;;5072773;28;20102;-61
2022/03/14 00:21:59;;;;;;;7.95;5.40;;;;;;;;;;5072198;28;20386;-60
2022/03/14 00:24:25;;;;;;;7.80;5.43;;;;;;;;;;5072462;28;20051;-61
2022/03/14 00:26:54;;;;;;;6.93;5.20;;;;;;;;;;5072279;28;20044;-61
2022/03/14 00:29:21;;;;;;;6.80;5.45;;;;;;;;;;5072555;28;20032;-61
2022/03/14 00:31:47;;;;;;;6.55;4.63;;;;;;;;;;5071674;28;20076;-61
2022/03/14 00:34:14;;;;;;;6.82;4.85;;;;;;;;;;5072309;28;20048;-61
2022/03/14 00:36:43;;;;;;;7.10;4.78;;;;;;;;;;5072618;28;20125;-61
2022/03/14 00:39:09;;;;;;;7.18;4.47;;;;;;;;;;5071860;28;20040;-60
2022/03/14 00:41:35;;;;;;;7.13;5.13;;;;;;;;;;5054192;28;20052;-61
2022/03/14 00:44:02;;;;;;;7.10;4.82;;;;;;;;;;5054106;28;20567;-61
2022/03/14 00:46:28;;;;;;;6.65;5.00;;;;;;;;;;5072496;28;20045;-61
2022/03/14 00:48:55;;;;;;;5.85;4.45;;;;;;;;;;5071247;28;20047;-61
2022/03/14 00:51:21;;;;;;;6.45;4.40;;;;;;;;;;5071807;28;20048;-61
2022/03/14 00:53:47;;;;;;;6.75;4.50;;;;;;;;;;5071573;28;20040;-61
2022/03/14 00:56:13;;;;;;;7.07;4.30;;;;;;;;;;5071959;28;20064;-60
2022/03/14 00:58:40;;;;;;;5.93;3.90;;;;;;;;;;5072089;28;20028;-61
2022/03/14 01:01:06;;;;;;;5.35;4.18;;;;;;;;;;5072191;28;20048;-61
2022/03/14 01:03:32;;;;;;;6.07;4.15;;;;;;;;;;5071995;28;20032;-61
2022/03/14 01:05:59;;;;;;;5.20;3.85;;;;;;;;;;5054126;28;20129;-61
2022/03/14 01:08:25;;;;;;;5.57;4.00;;;;;;;;;;5071370;28;20033;-61
2022/03/14 01:10:51;;;;;;;7.13;4.07;;;;;;;;;;5072038;28;20047;-61
2022/03/14 01:13:17;;;;;;;4.65;3.65;;;;;;;;;;5053946;28;20072;-61
2022/03/14 01:15:43;;;;;;;5.72;3.75;;;;;;;;;;5072013;28;20044;-61
2022/03/14 01:18:09;;;;;;;5.15;3.75;;;;;;;;;;5071780;28;20037;-61
2022/03/14 01:20:35;;;;;;;5.80;4.13;;;;;;;;;;5071792;28;20449;-62
2022/03/14 01:23:01;;;;;;;6.18;4.10;;;;;;;;;;5071190;28;20045;-61
2022/03/14 01:25:27;;;;;;;4.10;3.45;;;;;;;;;;5071878;28;20043;-61
2022/03/14 01:27:54;;;;;;;5.22;3.50;;;;;;;;;;5071706;28;20453;-61
2022/03/14 01:30:21;;;;;;;4.28;3.42;;;;;;;;;;5071073;28;20036;-61
2022/03/14 01:32:47;;;;;;;4.65;3.35;;;;;;;;;;5071472;28;20032;-61
2022/03/14 01:35:13;;;;;;;5.68;3.90;;;;;;;;;;5071703;28;20036;-61
2022/03/14 01:37:39;;;;;;;5.15;3.95;;;;;;;;;;5052918;28;20033;-61
2022/03/14 01:40:08;;;;;;;4.72;3.50;;;;;;;;;;5071534;28;20043;-61
2022/03/14 01:42:34;;;;;;;4.60;3.45;;;;;;;;;;5071644;28;20050;-61
2022/03/14 01:45:01;;;;;;;5.55;3.80;;;;;;;;;;5075784;28;20123;-61
2022/03/14 01:47:28;;;;;;;4.75;3.72;;;;;;;;;;5057553;28;20093;-61
2022/03/14 01:49:54;;;;;;;5.63;3.95;;;;;;;;;;5057623;28;20133;-61
2022/03/14 01:52:20;;;;;;;4.68;3.70;;;;;;;;;;5075068;28;20033;-61
2022/03/14 01:54:48;;;;;;;4.35;3.58;;;;;;;;;;5075796;28;20633;-61
2022/03/14 01:57:14;;;;;;;4.78;3.85;;;;;;;;;;5075698;28;20085;-61
2022/03/14 01:59:41;;;;;;;5.20;3.80;;;;;;;;;;5057313;28;20482;-60
2022/03/14 02:02:06;;;;;;;6.00;4.10;;;;;;;;;;5075386;28;20123;-61
2022/03/14 02:04:33;;;;;;;5.53;4.47;;;;;;;;;;5074526;28;20124;-61
2022/03/14 02:06:59;;;;;;;5.93;4.22;;;;;;;;;;5075166;28;20044;-61
2022/03/14 02:09:25;;;;;;;7.30;3.95;;;;;;;;;;5075268;28;20079;-61
2022/03/14 02:11:57;;;;;;;5.43;3.80;;;;;;;;;;5074708;28;20044;-61
2022/03/14 02:14:24;;;;;;;5.10;4.05;;;;;;;;;;5075161;28;20072;-61
2022/03/14 02:16:51;;;;;;;6.70;4.10;;;;;;;;;;5075099;28;20397;-61
2022/03/14 02:19:18;;;;;;;6.78;4.38;;;;;;;;;;5056685;28;20037;-61
2022/03/14 02:21:43;;;;;;;8.85;5.13;;;;;;;;;;5074560;28;20047;-61
2022/03/14 02:24:09;;;;;;;6.47;4.65;;;;;;;;;;5074997;28;20048;-61
2022/03/14 02:26:39;;;;;;;5.50;4.50;;;;;;;;;;5075163;28;20083;-61
2022/03/14 02:29:06;;;;;;;6.65;4.32;;;;;;;;;;5074263;28;20082;-61
2022/03/14 02:31:36;;;;;;;7.47;5.05;;;;;;;;;;5074175;28;20038;-61
2022/03/14 02:34:02;;;;;;;6.20;4.68;;;;;;;;;;5074641;28;20051;-61
2022/03/14 02:36:28;;;;;;;6.35;4.70;;;;;;;;;;5074763;28;20036;-61
2022/03/14 02:38:54;;;;;;;6.63;4.43;;;;;;;;;;5074637;28;20037;-61
2022/03/14 02:41:22;;;;;;;7.28;4.55;;;;;;;;;;5074866;28;20457;-61
2022/03/14 02:43:48;;;;;;;5.93;4.38;;;;;;;;;;5056592;28;20076;-61
2022/03/14 02:46:15;;;;;;;6.78;4.68;;;;;;;;;;5056696;28;20110;-61
2022/03/14 02:48:41;;;;;;;5.47;4.53;;;;;;;;;;5074307;28;20541;-60
2022/03/14 02:51:07;;;;;;;6.00;4.55;;;;;;;;;;5074027;28;20090;-61
2022/03/14 02:53:33;;;;;;;5.57;4.47;;;;;;;;;;5074143;28;20078;-61
2022/03/14 02:55:59;;;;;;;5.47;3.83;;;;;;;;;;5074419;28;20037;-61
2022/03/14 02:58:29;;;;;;;5.18;3.80;;;;;;;;;;5074251;28;20482;-61
2022/03/14 03:00:56;;;;;;;5.30;3.45;;;;;;;;;;5073177;28;20079;-61
2022/03/14 03:03:22;;;;;;;5.75;3.70;;;;;;;;;;5080993;28;20047;-61
2022/03/14 03:05:48;;;;;;;4.32;3.30;;;;;;;;;;5072595;28;20398;-61
2022/03/14 03:08:14;;;;;;;3.92;3.08;;;;;;;;;;5074089;28;20040;-61
2022/03/14 03:10:42;;;;;;;5.00;2.92;;;;;;;;;;5074136;28;20090;-61
2022/03/14 03:13:10;;;;;;;3.70;3.00;;;;;;;;;;5056306;28;20055;-61
2022/03/14 03:15:37;;;;;;;4.28;2.83;;;;;;;;;;5073911;28;20040;-61
2022/03/14 03:18:04;;;;;;;3.30;2.75;;;;;;;;;;5055650;28;20052;-61
2022/03/14 03:20:30;;;;;;;3.85;3.08;;;;;;;;;;5055573;28;20490;-61
2022/03/14 03:22:56;;;;;;;3.88;3.17;;;;;;;;;;5073950;28;20044;-61
2022/03/14 03:25:22;;;;;;;4.13;2.78;;;;;;;;;;5073959;28;20040;-61
2022/03/14 03:27:48;;;;;;;3.50;2.50;;;;;;;;;;5073057;28;20086;-61
2022/03/14 03:30:15;;;;;;;4.70;3.03;;;;;;;;;;5073398;28;20051;-61
2022/03/14 03:32:41;;;;;;;4.25;2.80;;;;;;;;;;5073440;28;20122;-61
2022/03/14 03:35:07;;;;;;;3.72;2.55;;;;;;;;;;5072865;28;20115;-61
2022/03/14 03:37:34;;;;;;;4.10;2.70;;;;;;;;;;5073435;28;20048;-61
2022/03/14 03:40:00;;;;;;;2.92;2.45;;;;;;;;;;5073646;28;20041;-61
2022/03/14 03:42:26;;;;;;;3.80;3.15;;;;;;;;;;5073404;28;20234;-61
2022/03/14 03:44:52;;;;;;;3.65;2.78;;;;;;;;;;5073196;28;20093;-61
2022/03/14 03:47:18;;;;;;;4.35;2.80;;;;;;;;;;5073370;28;20066;-61
2022/03/14 03:49:44;;;;;;;4.63;3.00;;;;;;;;;;5073101;28;20507;-61
2022/03/14 03:52:10;;;;;;;4.22;3.20;;;;;;;;;;5072482;28;20119;-61
2022/03/14 03:54:36;;;;;;;5.00;3.05;;;;;;;;;;5073387;28;20181;-61
2022/03/14 03:57:03;;;;;;;2.97;2.67;;;;;;;;;;5072883;28;20192;-61
2022/03/14 03:59:29;;;;;;;3.67;2.70;;;;;;;;;;5055326;28;20605;-61
2022/03/14 04:01:55;;;;;;;3.55;3.13;;;;;;;;;;5073329;28;20052;-61
2022/03/14 04:04:23;;;;;;;3.72;2.97;;;;;;;;;;5072629;28;20044;-61
2022/03/14 04:06:51;;;;;;;3.10;2.80;;;;;;;;;;5052600;28;20079;-61
2022/03/14 04:09:17;;;;;;;3.55;3.00;;;;;;;;;;5052946;28;20461;-61
2022/03/14 04:11:43;;;;;;;4.93;3.35;;;;;;;;;;5052754;28;20047;-60
2022/03/14 04:14:10;;;;;;;3.97;3.30;;;;;;;;;;5052383;28;20041;-61
2022/03/14 04:16:37;;;;;;;4.90;3.38;;;;;;;;;;5052377;28;20407;-61
2022/03/14 04:19:03;;;;;;;4.90;3.20;;;;;;;;;;5053104;28;20044;-61
2022/03/14 04:21:29;;;;;;;3.78;3.22;;;;;;;;;;5071605;28;20115;-61
2022/03/14 04:23:57;;;;;;;5.20;3.78;;;;;;;;;;5071657;28;20490;-61
2022/03/14 04:26:23;;;;;;;4.43;3.50;;;;;;;;;;5072191;28;20044;-61
2022/03/14 04:28:49;;;;;;;4.88;3.83;;;;;;;;;;5072685;28;20116;-61
2022/03/14 04:31:15;;;;;;;5.43;3.50;;;;;;;;;;5072460;28;20472;-61
2022/03/14 04:33:41;;;;;;;3.95;3.53;;;;;;;;;;5072358;28;20044;-61
2022/03/14 04:36:08;;;;;;;4.97;4.05;;;;;;;;;;5071712;28;20035;-61
2022/03/14 04:38:34;;;;;;;7.65;3.80;;;;;;;;;;5072023;28;20068;-61
2022/03/14 04:41:00;;;;;;;4.53;3.60;;;;;;;;;;5072206;28;20490;-61
2022/03/14 04:43:26;;;;;;;4.78;3.55;;;;;;;;;;5072498;28;20079;-61
2022/03/14 04:45:52;;;;;;;4.13;3.55;;;;;;;;;;5072540;28;20048;-61
2022/03/14 04:48:18;;;;;;;4.93;3.65;;;;;;;;;;5071881;28;20037;-61
2022/03/14 04:50:45;;;;;;;4.13;3.67;;;;;;;;;;5072055;28;20482;-61
2022/03/14 04:53:11;;;;;;;4.88;3.90;;;;;;;;;;5072105;28;20125;-61
2022/03/14 04:55:37;;;;;;;4.35;3.40;;;;;;;;;;5072013;28;20037;-61
2022/03/14 04:58:03;;;;;;;4.05;3.60;;;;;;;;;;5071894;28;20047;-61
2022/03/14 05:00:30;;;;;;;4.68;3.83;;;;;;;;;;5071096;28;20078;-61
2022/03/14 05:03:06;;;;;;;4.30;3.30;;;;;;;;;;5079739;28;20106;-61
2022/03/14 05:05:32;;;;;;;5.60;3.80;;;;;;;;;;5050880;28;20387;-60
2022/03/14 05:07:58;;;;;;;5.70;3.42;;;;;;;;;;5051610;28;20045;-61
2022/03/14 05:10:24;;;;;;;4.93;3.80;;;;;;;;;;5051737;28;20051;-61
2022/03/14 05:12:51;;;;;;;5.00;3.38;;;;;;;;;;5033423;28;20387;-61
2022/03/14 05:15:17;;;;;;;6.40;3.92;;;;;;;;;;5051592;28;20044;-61
2022/03/14 05:17:44;;;;;;;5.43;3.30;;;;;;;;;;5055222;28;20040;-61
2022/03/14 05:20:10;;;;;;;5.22;3.22;;;;;;;;;;5071965;28;20036;-61
2022/03/14 05:22:48;;;;;;;5.20;3.72;;;;;;;;;;5071592;28;20090;-61
2022/03/14 05:25:14;;;;;;;5.60;3.70;;;;;;;;;;5071867;28;20048;-61
2022/03/14 05:27:40;;;;;;;6.15;3.75;;;;;;;;;;5071704;28;20036;-61
2022/03/14 05:30:08;;;;;;;5.45;3.80;;;;;;;;;;5071934;28;20051;-61
2022/03/14 05:32:34;;;;;;;5.40;3.70;;;;;;;;;;5085754;22;20038;-61
2022/03/14 05:35:00;;;;;;;4.20;3.20;;;;;;;;;;5070994;28;20490;-62
2022/03/14 05:37:26;;;;;;;5.53;3.83;;;;;;;;;;5069637;28;20127;-62
2022/03/14 05:39:52;;;;;;;5.80;3.70;;;;;;;;;;5071744;28;20040;-61
2022/03/14 05:42:18;;;;;;;4.60;3.55;;;;;;;;;;5071603;28;20472;-61
2022/03/14 05:44:45;;;;;;;7.53;4.22;;;;;;;;;;5071413;28;20564;-61
2022/03/14 05:47:11;;;;;;;5.47;3.92;;;;;;;;;;5071112;28;20048;-61
2022/03/14 05:49:37;;;;;;;5.82;3.90;;;;;;;;;;5071556;28;20037;-62
2022/03/14 05:52:03;;;;;;;5.05;4.13;;;;;;;;;;5070921;28;20040;-62
2022/03/14 05:54:29;;;;;;;6.00;4.18;;;;;;;;;;5071584;28;20075;-62
2022/03/14 05:56:55;;;;;;;5.75;4.40;;;;;;;;;;5071590;28;20055;-62
2022/03/14 05:59:21;;;;;;;6.38;4.35;;;;;;;;;;5071192;28;20040;-62
2022/03/14 06:01:49;;;;;;;5.90;4.07;;;;;;;;;;5071052;28;20098;-63
2022/03/14 06:04:15;;;;;;;5.85;4.43;;;;;;;;;;5071202;28;20048;-62
2022/03/14 06:06:42;;;;;;;6.20;4.40;;;;;;;;;;5071187;28;20040;-63
2022/03/14 06:09:08;;;;;;;7.18;4.47;;;;;;;;;;5071278;28;20044;-62
2022/03/14 06:11:34;;;;;;;7.63;4.55;;;;;;;;;;5071260;28;20501;-62
2022/03/14 06:14:00;;;;;;;6.32;4.50;;;;;;;;;;5070932;28;20040;-62
2022/03/14 06:16:26;;;;;;;6.47;4.70;;;;;;;;;;5070882;28;20459;-62
2022/03/14 06:18:52;;;;;;;5.90;4.88;;;;;;;;;;5071143;28;20040;-62
2022/03/14 06:21:18;;;;;;;6.43;4.60;;;;;;;;;;5071244;28;20175;-62
2022/03/14 06:23:44;;;;;;;6.55;4.38;;;;;;;;;;5071152;28;20040;-62
2022/03/14 06:26:10;;;;;;;6.88;4.82;;;;;;;;;;5071159;28;20036;-62
2022/03/14 06:28:36;;;;;;;6.65;4.68;;;;;;;;;;5070978;28;20045;-62
2022/03/14 06:31:02;;;;;;;7.13;4.70;;;;;;;;;;5074234;28;20068;-62
2022/03/14 06:33:28;;;;;;;8.98;5.30;;;;;;;;;;5074316;28;20033;-62
2022/03/14 06:35:54;;;;;;;6.90;5.00;;;;;;;;;;5074949;28;20033;-63
2022/03/14 06:38:20;;;;;;;6.60;5.22;;;;;;;;;;5074141;28;20051;-63
2022/03/14 06:40:47;;;;;;;8.20;5.50;;;;;;;;;;5074680;28;20036;-63
2022/03/14 06:43:14;;;;;;;7.15;5.50;;;;;;;;;;5074351;28;20048;-63
2022/03/14 06:45:40;;;;;;;6.57;5.28;;;;;;;;;;5074326;28;20074;-63
2022/03/14 06:48:06;;;;;;;8.20;5.63;;;;;;;;;;5074390;28;20074;-63
2022/03/14 06:50:33;;;;;;;7.60;5.35;;;;;;;;;;5074668;28;20101;-63
2022/03/14 06:52:59;;;;;;;6.80;5.00;;;;;;;;;;5074339;28;20510;-62
2022/03/14 06:55:26;;;;;;;7.30;5.32;;;;;;;;;;5074204;28;20085;-63
2022/03/14 06:57:54;;;;;;;8.80;6.00;;;;;;;;;;5074190;28;20165;-63
2022/03/14 07:00:20;;;;;;;7.38;4.95;;;;;;;;;;5074294;28;20074;-63
2022/03/14 07:02:46;;;;;;;8.80;5.60;;;;;;;;;;5074335;28;20097;-63
2022/03/14 07:05:13;;;;;;;8.07;5.63;;;;;;;;;;5074340;28;20052;-63
2022/03/14 07:07:40;;;;;;;10.15;6.55;;;;;;;;;;5073059;28;20131;-63
2022/03/14 07:10:07;;;;;;;8.40;5.72;;;;;;;;;;5073686;28;20045;-63
2022/03/14 07:12:37;;;;;;;9.43;6.22;;;;;;;;;;5073023;28;20506;-63
2022/03/14 07:15:03;;;;;;;8.85;6.20;;;;;;;;;;5073137;28;20072;-63
2022/03/14 07:17:29;;;;;;;10.48;6.35;;;;;;;;;;5073890;28;20036;-63
2022/03/14 07:19:55;;;;;;;11.57;6.60;;;;;;;;;;5074010;28;20040;-63
2022/03/14 07:22:21;;;;;;;9.10;7.00;;;;;;;;;;5073908;28;20044;-63
2022/03/14 07:24:47;;;;;;;8.93;6.32;;;;;;;;;;5074010;28;20110;-63
2022/03/14 07:27:15;;;;;;;8.65;6.68;;;;;;;;;;5073613;28;20064;-63
2022/03/14 07:29:41;;;;;;;11.32;6.78;;;;;;;;;;5072004;28;20036;-63
2022/03/14 07:32:07;;;;;;;9.63;6.78;;;;;;;;;;5073653;28;20037;-63
2022/03/14 07:34:33;;;;;;;11.98;7.80;;;;;;;;;;5073775;28;20090;-63
2022/03/14 07:36:59;;;;;;;9.35;6.93;;;;;;;;;;5073387;28;20044;-63
2022/03/14 07:39:25;;;;;;;9.85;7.03;;;;;;;;;;5073281;28;20724;-62
2022/03/14 07:41:51;;;;;;;11.52;7.30;;;;;;;;;;5072929;28;20522;-62
2022/03/14 07:44:17;;;;;;;11.65;7.40;;;;;;;;;;5072516;28;20046;-62
2022/03/14 07:46:43;;;;;;;10.90;7.10;;;;;;;;;;5073752;28;20405;-62
2022/03/14 07:49:10;;;;;;;9.55;6.93;;;;;;;;;;5073002;28;20119;-63
2022/03/14 07:51:36;;;;;;;10.00;6.95;;;;;;;;;;5072969;28;20624;-62
2022/03/14 07:54:02;;;;;;;12.10;8.20;;;;;;;;;;5073100;28;20055;-62
2022/03/14 07:56:28;;;;;;;11.50;7.55;;;;;;;;;;5073379;28;20040;-63
2022/03/14 07:58:54;;;;;;;11.48;8.05;;;;;;;;;;5071977;28;20048;-63
2022/03/14 08:01:20;;;;;;;9.65;7.45;;;;;;;;;;5073272;28;20044;-63
2022/03/14 08:03:46;;;;;;;11.32;7.85;;;;;;;;;;5073164;28;20185;-63
2022/03/14 08:06:17;;;;;;;13.05;8.15;;;;;;;;;;5072763;28;20265;-63
2022/03/14 08:08:43;;;;;;;12.02;8.05;;;;;;;;;;5072956;28;20498;-63
2022/03/14 08:11:09;;;;;;;12.38;8.15;;;;;;;;;;5072936;28;20123;-63
2022/03/14 08:13:36;;;;;;;11.27;8.15;;;;;;;;;;5072691;28;20044;-63
2022/03/14 08:16:02;;;;;;;12.13;7.85;;;;;;;;;;5072971;28;20053;-63
2022/03/14 08:18:28;;;;;;;13.90;8.30;;;;;;;;;;5071946;28;20040;-62
2022/03/14 08:20:57;;;;;;;11.75;8.20;;;;;;;;;;5072569;28;20037;-63
2022/03/14 08:23:23;;;;;;;12.00;8.52;;;;;;;;;;5072863;28;20055;-63
2022/03/14 08:25:49;;;;;;;11.10;7.97;;;;;;;;;;5072810;28;20040;-63
2022/03/14 08:28:15;;;;;;;13.50;7.85;;;;;;;;;;5072621;28;20436;-63
2022/03/14 08:30:42;;;;;;;12.57;8.80;;;;;;;;;;5071563;28;20505;-63
2022/03/14 08:33:08;;;;;;;10.20;7.65;;;;;;;;;;5072390;28;20041;-63
2022/03/14 08:35:34;;;;;;;10.88;8.07;;;;;;;;;;5070273;28;20544;-63
2022/03/14 08:38:01;;;;;;;12.18;8.73;;;;;;;;;;5072502;28;20055;-62
2022/03/14 08:40:28;;;;;;;12.90;9.05;;;;;;;;;;5072683;28;20036;-63
2022/03/14 08:42:55;;;;;;;13.60;9.57;;;;;;;;;;5072455;28;20041;-63
2022/03/14 08:45:23;;;;;;;13.70;9.27;;;;;;;;;;5072349;28;20040;-63
2022/03/14 08:47:49;;;;;;;11.65;8.27;;;;;;;;;;5072103;28;20040;-63
2022/03/14 08:50:16;;;;;;;14.00;9.05;;;;;;;;;;5070563;28;20094;-63
2022/03/14 08:52:45;;;;;;;12.35;8.98;;;;;;;;;;5070748;28;20124;-63
2022/03/14 08:55:12;;;;;;;13.63;9.00;;;;;;;;;;5072151;28;20071;-63
2022/03/14 08:57:38;;;;;;;15.52;10.15;;;;;;;;;;5072112;28;20044;-63
2022/03/14 09:00:04;;;;;;;16.17;10.27;;;;;;;;;;5071802;28;20036;-63
2022/03/14 09:02:30;;;;;;;14.57;9.32;;;;;;;;;;5071972;28;20044;-62
2022/03/14 09:04:56;;;;;;;14.90;9.55;;;;;;;;;;5071228;28;20041;-62
2022/03/14 09:07:30;;;;;;;14.85;10.13;;;;;;;;;;5071603;28;20040;-61
2022/03/14 09:10:01;;;;;;;15.95;10.80;;;;;;;;;;5071622;28;20075;-62
2022/03/14 09:12:27;;;;;;;;;;;;;;;;;;5072295;28;20048;-62
2022/03/14 09:14:53;;;;;;;17.73;12.13;;;;;;;;;;5071382;28;19917;-62
2022/03/14 09:17:20;;;;;;;19.83;12.90;;;;;;;;;;5071894;28;20123;-62
2022/03/14 09:19:45;;;;;;;22.15;13.20;;;;;;;;;;5071269;28;20040;-63
2022/03/14 09:22:12;;;;;;;22.98;14.73;;;;;;;;;;5071539;28;20069;-62
2022/03/14 09:24:38;;;;;;;25.50;16.13;;;;;;;;;;5071324;28;20091;-62
2022/03/14 09:27:05;;;;;;;22.65;14.48;;;;;;;;;;5071655;28;20563;-63
2022/03/14 09:29:31;;;;;;;29.45;15.23;;;;;;;;;;5071070;28;20036;-62
2022/03/14 09:31:57;;;;;;;25.40;15.35;;;;;;;;;;5071877;28;20047;-63
2022/03/14 09:34:23;;;;;;;23.25;14.63;;;;;;;;;;5071310;28;20041;-63
2022/03/14 09:36:50;;;;;;;20.25;12.68;;;;;;;;;;5071678;28;20029;-62
2022/03/14 09:39:16;;;;;;;18.98;12.20;;;;;;;;;;5071570;28;20101;-62
2022/03/14 09:41:42;;;;;;;16.55;10.05;;;;;;;;;;5071654;28;20491;-63
2022/03/14 09:44:09;;;;;;;15.45;10.32;;;;;;;;;;5071495;28;20037;-63
2022/03/14 09:46:39;;;;;;;15.93;9.88;;;;;;;;;;5071761;28;20040;-63
2022/03/14 09:49:07;;;;;;;13.77;8.70;;;;;;;;;;5070859;28;20505;-62
2022/03/14 09:51:33;;;;;;;13.50;7.85;;;;;;;;;;5070886;28;20494;-63
2022/03/14 09:54:00;;;;;;;12.13;7.85;;;;;;;;;;5071632;28;20040;-62
2022/03/14 09:56:26;;;;;;;14.27;8.32;;;;;;;;;;5071475;28;20076;-63
2022/03/14 09:58:52;;;;;;;14.13;8.40;;;;;;;;;;5071109;28;20044;-63
2022/03/14 10:01:19;;;;;;;15.35;8.52;;;;;;;;;;5070571;28;20502;-63
2022/03/14 10:03:45;;;;;;;11.93;7.93;;;;;;;;;;5070923;28;20520;-62
2022/03/14 10:06:11;;;;;;;18.58;10.10;;;;;;;;;;5074375;28;20403;-63
2022/03/14 10:08:37;;;;;;;18.50;10.25;;;;;;;;;;5075291;28;20127;-63
2022/03/14 10:11:03;;;;;;;16.45;10.50;;;;;;;;;;5075350;28;20490;-62
2022/03/14 10:13:29;;;;;;;19.55;11.52;;;;;;;;;;5075139;28;20040;-62
2022/03/14 10:15:55;;;;;;;21.98;12.80;;;;;;;;;;5075240;28;20090;-62
2022/03/14 10:18:21;;;;;;;23.02;13.32;;;;;;;;;;5074709;28;20040;-62
2022/03/14 10:21:05;;;;;;;23.80;13.55;;;;;;;;;;5075244;28;20083;-62
2022/03/14 10:23:43;;;;;;;26.38;13.18;;;;;;;;;;5075050;28;20516;-62
2022/03/14 10:26:15;;;;;;;24.05;14.15;;;;;;;;;;5075023;28;20041;-62
2022/03/14 10:28:42;;;;;;;25.48;13.85;;;;;;;;;;5073793;28;20044;-62
2022/03/14 10:31:08;;;;;;;24.52;13.25;;;;;;;;;;5074437;28;20036;-63
2022/03/14 10:33:35;;;;;;;26.02;13.27;;;;;;;;;;5074724;28;20076;-62
2022/03/14 10:36:01;;;;;;;25.20;12.75;;;;;;;;;;5074666;28;20036;-63
2022/03/14 10:38:27;;;;;;;25.00;12.30;;;;;;;;;;5074557;28;20052;-63
2022/03/14 10:40:57;;;;;;;24.40;12.32;;;;;;;;;;5074745;28;20068;-63
2022/03/14 10:43:25;;;;;;;21.27;11.30;;;;;;;;;;5074655;28;20040;-62
2022/03/14 10:45:51;;;;;;;21.33;12.05;;;;;;;;;;5074239;28;20025;-62
2022/03/14 10:48:17;;;;;;;26.02;12.77;;;;;;;;;;5074447;28;20046;-63
2022/03/14 10:50:43;;;;;;;20.77;11.45;;;;;;;;;;5074457;28;20037;-62
2022/03/14 10:53:13;;;;;;;20.15;11.25;;;;;;;;;;5074345;28;20040;-62
2022/03/14 10:55:41;;;;;;;20.45;9.68;;;;;;;;;;5073893;28;20041;-62
2022/03/14 10:58:11;;;;;;;19.83;9.73;;;;;;;;;;5074199;28;20044;-62
2022/03/14 11:00:51;;;;;;;18.77;9.55;;;;;;;;;;5073739;28;20043;-62
2022/03/14 11:03:23;;;;;;;21.65;9.65;;;;;;;;;;5074051;28;20536;-62
2022/03/14 11:05:49;;;;;;;15.73;8.35;;;;;;;;;;5073371;28;20041;-62
2022/03/14 11:08:45;;;;;;;17.90;9.15;;;;;;;;;;5073455;28;20449;-62
2022/03/14 11:11:20;;;;;;;15.50;7.22;;;;;;;;;;5065538;28;20115;-62
2022/03/14 11:13:47;;;;;;;16.08;7.40;;;;;;;;;;5073743;28;20498;-62
2022/03/14 11:16:18;;;;;;;19.35;7.85;;;;;;;;;;5052774;28;20127;-62
2022/03/14 11:18:45;;;;;;;16.17;6.72;;;;;;;;;;5053905;28;20091;-62
2022/03/14 11:21:13;;;;;;;19.83;6.93;;;;;;;;;;5053951;28;20097;-62
2022/03/14 11:23:40;;;;;;;14.75;6.80;;;;;;;;;;5053940;28;20041;-63
2022/03/14 11:26:09;;;;;;;14.05;5.70;;;;;;;;;;5053794;28;20134;-62
2022/03/14 11:28:35;;;;;;;12.95;5.93;;;;;;;;;;5053829;28;20490;-62
2022/03/14 11:31:02;;;;;;;18.55;5.80;;;;;;;;;;5073796;28;20441;-62
2022/03/14 11:33:31;;;;;;;13.85;5.90;;;;;;;;;;5085566;22;20043;-61
2022/03/14 11:35:58;;;;;;;14.32;5.25;;;;;;;;;;5072828;28;20037;-61
2022/03/14 11:38:24;;;;;;;13.25;5.28;;;;;;;;;;5072994;28;20036;-61
2022/03/14 11:40:51;;;;;;;15.50;4.82;;;;;;;;;;5071945;28;20036;-61
2022/03/14 11:43:18;;;;;;;14.38;4.78;;;;;;;;;;5081602;28;20075;-61
2022/03/14 11:45:45;;;;;;;13.40;4.57;;;;;;;;;;5093811;28;20047;-61
2022/03/14 11:48:12;;;;;;;13.52;4.72;;;;;;;;;;5093590;28;20044;-61
2022/03/14 11:50:44;;;;;;;13.75;4.60;;;;;;;;;;5093738;28;20028;-61
2022/03/14 11:53:17;;;;;;;11.35;4.65;;;;;;;;;;5093400;28;20500;-61
2022/03/14 11:55:50;;;;;;;11.93;4.50;;;;;;;;;;5093749;28;20040;-61
2022/03/14 11:58:35;;;;;;;11.80;4.70;;;;;;;;;;5092987;28;20047;-62
2022/03/14 12:01:21;;;;;;;9.43;4.82;;;;;;;;;;5093655;28;20098;-62
2022/03/14 12:04:06;;;;;;;13.13;5.18;;;;;;;;;;5074667;28;20055;-61
2022/03/14 12:06:47;;;;;;;14.50;5.30;;;;;;;;;;5075298;28;20070;-61
2022/03/14 12:09:13;;;;;;;;;;;;;;;;;;5093246;28;20036;-61
2022/03/14 12:11:41;;;;;;;14.93;5.13;;;;;;;;;;5086954;28;19949;-62
2022/03/14 12:14:11;;;;;;;12.32;5.63;;;;;;;;;;5070098;28;20073;-63
2022/03/14 12:16:45;;;;;;;15.65;6.68;;;;;;;;;;5091016;28;20481;-62
2022/03/14 12:19:28;;;;;;;14.25;7.80;;;;;;;;;;5086675;28;20619;-63
2022/03/14 12:21:55;;;;;;;17.58;8.57;;;;;;;;;;5089759;28;20032;-62
2022/03/14 12:24:21;;;;;;;16.10;9.02;;;;;;;;;;5063553;28;20482;-63
2022/03/14 12:26:47;;;;;;;18.27;9.25;;;;;;;;;;5061570;28;20085;-62
2022/03/14 12:29:32;;;;;;;19.88;9.85;;;;;;;;;;5085388;28;20048;-62
2022/03/14 12:32:17;;;;;;;20.67;11.05;;;;;;;;;;5088545;28;20051;-62
2022/03/14 12:34:43;;;;;;;19.55;11.82;;;;;;;;;;5078238;28;20043;-62
2022/03/14 12:37:26;;;;;;;22.60;11.95;;;;;;;;;;5069272;28;20036;-60
2022/03/14 12:39:52;;;;;;;20.00;12.05;;;;;;;;;;5082026;28;20042;-60
2022/03/14 12:42:21;;;;;;;19.67;12.68;;;;;;;;;;5091949;28;20048;-60
2022/03/14 12:45:07;;;;;;;21.02;13.02;;;;;;;;;;5091570;28;20405;-59
2022/03/14 12:47:39;;;;;;;21.50;13.52;;;;;;;;;;5088985;28;20055;-61
2022/03/14 12:50:05;;;;;;;23.30;13.10;;;;;;;;;;5074615;28;20514;-62
2022/03/14 12:52:32;;;;;;;22.85;13.05;;;;;;;;;;5091957;28;20123;-62
2022/03/14 12:55:17;;;;;;;23.90;12.82;;;;;;;;;;5087911;28;20545;-61
2022/03/14 12:57:44;;;;;;;23.40;13.82;;;;;;;;;;5078606;28;20324;-61
2022/03/14 13:00:10;;;;;;;20.58;14.40;;;;;;;;;;5084663;28;20048;-61
2022/03/14 13:02:36;;;;;;;24.70;14.95;;;;;;;;;;5090086;28;20039;-61
2022/03/14 13:05:03;;;;;;;26.60;14.23;;;;;;;;;;5078823;28;20138;-61
2022/03/14 13:07:30;;;;;;;23.90;13.50;;;;;;;;;;5082058;28;20109;-61
2022/03/14 13:09:57;;;;;;;22.38;13.20;;;;;;;;;;5083661;28;20071;-62
2022/03/14 13:12:23;;;;;;;25.13;13.18;;;;;;;;;;5086790;28;20505;-62
2022/03/14 13:14:49;;;;;;;23.52;12.90;;;;;;;;;;5091588;28;20512;-62
2022/03/14 13:17:25;;;;;;;24.27;12.90;;;;;;;;;;5073216;28;20062;-61
2022/03/14 13:19:52;;;;;;;19.98;11.90;;;;;;;;;;5092025;28;20040;-62
2022/03/14 13:22:20;;;;;;;19.02;10.50;;;;;;;;;;5091744;28;20044;-62
2022/03/14 13:24:46;;;;;;;20.55;10.82;;;;;;;;;;5073506;28;20540;-62
2022/03/14 13:27:13;;;;;;;20.02;10.77;;;;;;;;;;5069862;28;20558;-61
2022/03/14 13:29:43;;;;;;;27.40;10.52;;;;;;;;;;5091141;28;20501;-61
2022/03/14 13:32:16;;;;;;;24.23;11.20;;;;;;;;;;5091721;28;20055;-62
2022/03/14 13:34:42;;;;;;;21.50;11.23;;;;;;;;;;5091024;28;20055;-62
2022/03/14 13:37:10;;;;;;;17.33;10.02;;;;;;;;;;5091592;28;20064;-62
2022/03/14 13:39:36;;;;;;;21.30;10.20;;;;;;;;;;5090128;28;20481;-62
2022/03/14 13:42:03;;;;;;;19.10;10.15;;;;;;;;;;5091172;28;20040;-62
2022/03/14 13:44:29;;;;;;;18.25;10.57;;;;;;;;;;5091181;28;20524;-62
2022/03/14 13:46:57;;;;;;;18.60;9.05;;;;;;;;;;5090956;28;20104;-62
2022/03/14 13:49:27;;;;;;;17.92;9.52;;;;;;;;;;5073303;28;20451;-62
2022/03/14 13:51:56;;;;;;;13.87;8.53;;;;;;;;;;5091378;28;20063;-62
2022/03/14 13:54:27;;;;;;;16.92;8.88;;;;;;;;;;5090639;28;20405;-62
2022/03/14 13:57:05;;;;;;;13.35;8.23;;;;;;;;;;5069724;28;20102;-62
2022/03/14 13:59:32;;;;;;;15.07;7.38;;;;;;;;;;5056293;28;20040;-61
2022/03/14 14:01:58;;;;;;;16.48;7.38;;;;;;;;;;5075716;28;20402;-62
2022/03/14 14:04:27;;;;;;;15.68;7.35;;;;;;;;;;5087931;28;20032;-62
2022/03/14 14:06:54;;;;;;;18.08;7.13;;;;;;;;;;5088280;28;20108;-62
2022/03/14 14:09:24;;;;;;;17.25;6.65;;;;;;;;;;5085863;28;20039;-62
2022/03/14 14:11:59;;;;;;;16.77;6.97;;;;;;;;;;5067679;28;20040;-62
2022/03/14 14:14:26;;;;;;;15.88;7.40;;;;;;;;;;5074959;28;20038;-62
2022/03/14 14:16:52;;;;;;;17.55;8.18;;;;;;;;;;5083246;28;20039;-62
2022/03/14 14:19:18;;;;;;;17.60;8.50;;;;;;;;;;5089805;28;20040;-62
2022/03/14 14:21:55;;;;;;;13.70;8.35;;;;;;;;;;5091060;28;20067;-62
2022/03/14 14:24:24;;;;;;;15.63;8.13;;;;;;;;;;5089671;28;20047;-61
2022/03/14 14:26:50;;;;;;;16.63;9.10;;;;;;;;;;5090691;28;20039;-61
2022/03/14 14:29:35;;;;;;;20.23;8.45;;;;;;;;;;5091119;28;20073;-62
2022/03/14 14:32:14;;;;;;;23.25;9.75;;;;;;;;;;5090861;28;20048;-62
2022/03/14 14:34:40;;;;;;;16.77;9.15;;;;;;;;;;5090828;28;20036;-61
2022/03/14 14:37:06;;;;;;;18.58;9.82;;;;;;;;;;5091306;28;20433;-62
2022/03/14 14:39:35;;;;;;;20.20;9.60;;;;;;;;;;5091105;28;20040;-62